createdAt,value
2023-02-05T00:00:06.917Z,102033.50
2023-02-05T00:02:35.098Z,102027.53
2023-02-05T00:05:03.410Z,102029.28
2023-02-05T00:07:31.564Z,102034.41
2023-02-05T00:09:59.703Z,102031.84
2023-02-05T00:12:29.281Z,102025.03
2023-02-05T00:14:57.579Z,102024.22
2023-02-05T00:17:25.677Z,102023.41
2023-02-05T00:19:53.905Z,102022.59
2023-02-05T00:22:22.073Z,102022.56
2023-02-05T00:24:50.224Z,102016.59
2023-02-05T00:27:18.442Z,102026.91
2023-02-05T00:29:47.959Z,102014.91
2023-02-05T00:32:16.314Z,102014.91
2023-02-05T00:34:44.500Z,102004.66
2023-02-05T00:37:12.670Z,102006.41
2023-02-05T00:39:41.331Z,102009.84
2023-02-05T00:42:09.455Z,102008.19
2023-02-05T00:44:37.753Z,102006.47
2023-02-05T00:47:07.511Z,102008.22
2023-02-05T00:49:35.687Z,102006.47
2023-02-05T00:52:05.099Z,102000.53
2023-02-05T00:54:33.278Z,102004.84
2023-02-05T00:57:01.494Z,102004.00
2023-02-05T00:59:29.738Z,101996.34
2023-02-05T01:02:03.912Z,102002.31
2023-02-05T01:04:45.737Z,101995.50
2023-02-05T01:07:20.883Z,101992.97
2023-02-05T01:09:58.573Z,101995.56
2023-02-05T01:12:27.276Z,101984.44
2023-02-05T01:15:02.358Z,101985.34
2023-02-05T01:17:32.134Z,101975.94
2023-02-05T01:20:04.907Z,101975.03
2023-02-05T01:22:33.208Z,101970.75
2023-02-05T01:25:01.384Z,101964.75
2023-02-05T01:27:30.037Z,101965.63
2023-02-05T01:29:58.179Z,101966.44
2023-02-05T01:32:26.410Z,101961.31
2023-02-05T01:34:54.569Z,101954.47
2023-02-05T01:37:24.232Z,101945.03
2023-02-05T01:39:52.453Z,101942.44
2023-02-05T01:42:22.516Z,101942.41
2023-02-05T01:45:53.149Z,101943.22
2023-02-05T01:48:24.784Z,101938.88
2023-02-05T01:50:55.409Z,101939.63
2023-02-05T01:53:27.354Z,101942.13
2023-02-05T01:55:57.084Z,101944.63
2023-02-05T01:58:25.766Z,101941.13
2023-02-05T02:00:53.913Z,101942.75
2023-02-05T02:03:22.134Z,101935.81
2023-02-05T02:05:50.269Z,101941.72
2023-02-05T02:08:18.431Z,101938.25
2023-02-05T02:10:47.933Z,101916.88
2023-02-05T02:13:16.080Z,101904.09
2023-02-05T02:15:44.288Z,101904.06
2023-02-05T02:18:27.884Z,101899.78
2023-02-05T02:21:46.957Z,101904.84
2023-02-05T02:24:31.459Z,101906.44
2023-02-05T02:27:32.916Z,101903.84
2023-02-05T02:30:04.500Z,101908.06
2023-02-05T02:32:37.385Z,101913.13
2023-02-05T02:35:08.562Z,101914.72
2023-02-05T02:37:38.563Z,101912.13
2023-02-05T02:40:10.996Z,101904.38
2023-02-05T02:42:42.889Z,101913.69
2023-02-05T02:45:11.645Z,101916.22
2023-02-05T02:47:41.955Z,101905.13
2023-02-05T02:50:13.107Z,101900.03
2023-02-05T02:52:43.282Z,101894.91
2023-02-05T02:55:12.623Z,101891.50
2023-02-05T02:57:47.811Z,101895.72
2023-02-05T03:00:19.511Z,101888.06
2023-02-05T03:02:47.794Z,101879.50
2023-02-05T03:05:17.445Z,101882.88
2023-02-05T03:07:48.817Z,101886.22
2023-02-05T03:10:21.772Z,101879.41
2023-02-05T03:12:51.388Z,101883.72
2023-02-05T03:15:19.685Z,101875.19
2023-02-05T03:17:47.831Z,101879.53
2023-02-05T03:20:18.037Z,101871.06
2023-02-05T03:22:46.154Z,101867.72
2023-02-05T03:25:14.283Z,101854.19
2023-02-05T03:27:43.750Z,101855.97
2023-02-05T03:30:13.976Z,101848.28
2023-02-05T03:32:50.512Z,101856.88
2023-02-05T03:35:26.862Z,101849.25
2023-02-05T03:38:10.261Z,101844.97
2023-02-05T03:40:44.780Z,101846.72
2023-02-05T03:43:15.030Z,101860.38
2023-02-05T03:45:51.185Z,101871.50
2023-02-05T03:48:40.402Z,101867.25
2023-02-05T03:51:26.303Z,101860.38
2023-02-05T03:57:01.587Z,101855.22
2023-02-05T03:59:30.903Z,101844.97
2023-02-05T04:02:04.625Z,101855.22
2023-02-05T04:04:37.036Z,101852.69
2023-02-05T04:07:06.452Z,101858.66
2023-02-05T04:09:35.877Z,101850.13
2023-02-05T04:12:03.989Z,101849.28
2023-02-05T04:14:32.915Z,101846.72
2023-02-05T04:17:03.189Z,101844.16
2023-02-05T04:19:31.410Z,101845.91
2023-02-05T04:22:02.260Z,101846.78
2023-02-05T04:24:34.356Z,101855.34
2023-02-05T04:27:02.587Z,101856.28
2023-02-05T04:29:30.849Z,101855.44
2023-02-05T04:31:59.849Z,101864.00
2023-02-05T04:34:29.932Z,101866.53
2023-02-05T04:36:58.799Z,101866.56
2023-02-05T04:39:29.096Z,101864.03
2023-02-05T04:41:57.237Z,101855.53
2023-02-05T04:44:25.399Z,101853.81
2023-02-05T04:46:53.647Z,101867.47
2023-02-05T04:49:21.792Z,101870.91
2023-02-05T04:51:51.270Z,101870.06
2023-02-05T04:54:19.727Z,101863.25
2023-02-05T04:56:48.005Z,101858.09
2023-02-05T04:59:16.232Z,101858.09
2023-02-05T05:01:44.349Z,101864.09
2023-02-05T05:04:12.893Z,101864.97
2023-02-05T05:06:41.085Z,101874.41
2023-02-05T05:09:10.610Z,101871.06
2023-02-05T05:11:38.835Z,101861.72
2023-02-05T05:14:06.985Z,101854.06
2023-02-05T05:16:35.258Z,101836.19
2023-02-05T05:19:03.546Z,101831.09
2023-02-05T05:21:31.818Z,101831.09
2023-02-05T05:23:59.952Z,101836.22
2023-02-05T05:26:30.036Z,101828.53
2023-02-05T05:28:58.493Z,101832.78
2023-02-05T05:31:26.765Z,101842.19
2023-02-05T05:33:54.963Z,101848.19
2023-02-05T05:36:23.134Z,101857.56
2023-02-05T05:38:51.257Z,101854.16
2023-02-05T05:41:39.292Z,101853.34
2023-02-05T05:44:08.986Z,101851.66
2023-02-05T05:46:37.256Z,101855.94
2023-02-05T05:49:05.693Z,101845.72
2023-02-05T05:51:33.872Z,101838.03
2023-02-05T05:54:02.071Z,101839.72
2023-02-05T05:56:30.298Z,101834.56
2023-02-05T05:58:58.473Z,101833.72
2023-02-05T06:01:28.043Z,101832.00
2023-02-05T06:03:57.429Z,101833.69
2023-02-05T06:06:25.589Z,101832.00
2023-02-05T06:08:53.814Z,101843.97
2023-02-05T06:11:22.130Z,101848.28
2023-02-05T06:13:50.296Z,101844.88
2023-02-05T06:16:18.471Z,101844.06
2023-02-05T06:18:47.976Z,101843.22
2023-02-05T06:21:16.259Z,101853.44
2023-02-05T06:23:44.491Z,101854.34
2023-02-05T06:26:12.649Z,101860.34
2023-02-05T06:28:40.765Z,101861.19
2023-02-05T06:31:08.993Z,101859.50
2023-02-05T06:33:37.348Z,101852.66
2023-02-05T06:36:08.489Z,101850.91
2023-02-05T06:38:46.566Z,101853.44
2023-02-05T06:41:15.016Z,101849.16
2023-02-05T06:43:43.193Z,101845.75
2023-02-05T06:46:11.525Z,101850.00
2023-02-05T06:48:39.755Z,101839.78
2023-02-05T06:51:09.254Z,101845.78
2023-02-05T06:53:37.539Z,101840.66
2023-02-05T06:56:06.897Z,101842.38
2023-02-05T06:58:35.565Z,101830.44
2023-02-05T07:01:03.924Z,101825.34
2023-02-05T07:03:32.199Z,101823.63
2023-02-05T07:06:04.469Z,101830.44
2023-02-05T07:08:34.120Z,101839.00
2023-02-05T07:11:02.372Z,101835.56
2023-02-05T07:13:30.860Z,101829.56
2023-02-05T07:15:59.059Z,101831.28
2023-02-05T07:18:27.198Z,101838.09
2023-02-05T07:20:55.288Z,101832.97
2023-02-05T07:23:23.438Z,101843.22
2023-02-05T07:25:52.921Z,101841.50
2023-02-05T07:28:21.058Z,101834.66
2023-02-05T07:30:49.995Z,101841.50
2023-02-05T07:33:18.231Z,101835.53
2023-02-05T07:35:46.368Z,101826.97
2023-02-05T07:38:14.496Z,101825.25
2023-02-05T07:40:42.713Z,101826.13
2023-02-05T07:43:12.219Z,101827.81
2023-02-05T07:45:40.477Z,101824.44
2023-02-05T07:48:08.569Z,101828.69
2023-02-05T07:50:36.744Z,101834.66
2023-02-05T07:53:04.920Z,101826.13
2023-02-05T07:55:33.399Z,101815.91
2023-02-05T07:58:01.866Z,101813.34
2023-02-05T08:00:32.249Z,101797.13
2023-02-05T08:03:00.524Z,101784.31
2023-02-05T08:05:28.767Z,101780.03
2023-02-05T08:07:57.006Z,101773.19
2023-02-05T08:10:25.220Z,101778.31
2023-02-05T08:12:53.439Z,101778.34
2023-02-05T08:15:21.626Z,101792.88
2023-02-05T08:17:51.127Z,101786.94
2023-02-05T08:20:19.738Z,101784.34
2023-02-05T08:22:49.262Z,101796.28
2023-02-05T08:25:18.196Z,101801.41
2023-02-05T08:27:49.270Z,101797.16
2023-02-05T08:30:20.173Z,101804.00
2023-02-05T08:32:50.264Z,101794.59
2023-02-05T08:35:18.661Z,101787.75
2023-02-05T08:37:46.919Z,101782.69
2023-02-05T08:40:15.255Z,101791.22
2023-02-05T08:42:43.474Z,101790.38
2023-02-05T08:45:11.738Z,101789.53
2023-02-05T08:47:39.838Z,101785.22
2023-02-05T08:50:10.759Z,101776.69
2023-02-05T08:52:38.983Z,101780.09
2023-02-05T08:55:07.472Z,101779.22
2023-02-05T08:57:35.740Z,101777.53
2023-02-05T09:00:05.390Z,101777.53
2023-02-05T09:02:33.767Z,101782.66
2023-02-05T09:05:08.840Z,101772.38
2023-02-05T09:07:39.649Z,101763.84
2023-02-05T09:10:09.147Z,101757.88
2023-02-05T09:12:38.055Z,101748.47
2023-02-05T09:15:07.013Z,101747.63
2023-02-05T09:17:35.356Z,101750.19
2023-02-05T09:20:03.787Z,101746.75
2023-02-05T09:22:32.171Z,101748.47
2023-02-05T09:25:03.209Z,101755.34
2023-02-05T09:27:31.490Z,101755.34
2023-02-05T09:29:59.767Z,101755.38
2023-02-05T09:32:28.131Z,101761.31
2023-02-05T09:34:56.408Z,101755.34
2023-02-05T09:37:24.606Z,101752.78
2023-02-05T09:40:19.489Z,101763.03
2023-02-05T09:42:46.446Z,101761.31
2023-02-05T09:45:28.057Z,101758.81
2023-02-05T09:48:02.041Z,101748.56
2023-02-05T09:50:30.402Z,101749.44
2023-02-05T09:53:01.823Z,101743.44
2023-02-05T09:55:31.172Z,101737.47
2023-02-05T09:58:03.811Z,101736.56
2023-02-05T10:00:34.214Z,101742.59
2023-02-05T10:03:08.862Z,101730.63
2023-02-05T10:05:43.211Z,101730.63
2023-02-05T10:08:16.137Z,101727.22
2023-02-05T10:10:46.078Z,101719.53
2023-02-05T10:13:34.538Z,101716.09
2023-02-05T10:16:23.112Z,101715.28
2023-02-05T10:19:18.826Z,101716.13
2023-02-05T10:22:01.260Z,101716.94
2023-02-05T10:24:49.352Z,101711.81
2023-02-05T10:27:20.935Z,101710.06
2023-02-05T10:29:58.273Z,101706.69
2023-02-05T10:32:30.765Z,101710.97
2023-02-05T10:35:01.347Z,101714.38
2023-02-05T10:37:38.338Z,101705.84
2023-02-05T10:40:14.978Z,101706.69
2023-02-05T10:42:45.955Z,101700.69
2023-02-05T10:45:19.311Z,101699.84
2023-02-05T10:48:23.252Z,101694.72
2023-02-05T10:50:56.271Z,101689.56
2023-02-05T10:53:25.756Z,101692.16
2023-02-05T10:55:53.954Z,101682.75
2023-02-05T10:58:42.257Z,101682.75
2023-02-05T11:01:16.892Z,101681.91
2023-02-05T11:03:55.208Z,101684.47
2023-02-05T11:06:24.516Z,101683.66
2023-02-05T11:08:52.888Z,101675.94
2023-02-05T11:11:23.971Z,101677.66
2023-02-05T11:13:55.514Z,101673.38
2023-02-05T11:16:25.188Z,101672.56
2023-02-05T11:18:58.572Z,101664.84
2023-02-05T11:21:46.251Z,101664.88
2023-02-05T11:24:26.994Z,101658.88
2023-02-05T11:27:32.699Z,101653.75
2023-02-05T11:30:28.669Z,101649.47
2023-02-05T11:33:26.259Z,101649.47
2023-02-05T11:35:56.801Z,101653.75
2023-02-05T11:38:30.297Z,101649.50
2023-02-05T11:40:59.971Z,101655.47
2023-02-05T11:43:32.075Z,101648.63
2023-02-05T11:46:01.064Z,101639.22
2023-02-05T11:48:45.904Z,101635.81
2023-02-05T11:51:15.557Z,101643.53
2023-02-05T11:53:51.467Z,101637.53
2023-02-05T11:56:24.263Z,101621.28
2023-02-05T11:59:00.821Z,101633.25
2023-02-05T12:01:32.268Z,101634.09
2023-02-05T12:04:03.188Z,101634.09
2023-02-05T12:06:36.725Z,101628.97
2023-02-05T12:09:05.595Z,101632.41
2023-02-05T12:12:03.800Z,101628.97
2023-02-05T12:14:43.276Z,101625.53
2023-02-05T12:17:36.941Z,101622.09
2023-02-05T12:20:16.576Z,101620.38
2023-02-05T12:23:24.441Z,101616.97
2023-02-05T12:26:04.536Z,101614.41
2023-02-05T12:28:40.481Z,101618.66
2023-02-05T12:31:20.604Z,101609.25
2023-02-05T12:34:20.957Z,101612.69
2023-02-05T12:37:13.143Z,101607.56
2023-02-05T12:39:46.518Z,101602.44
2023-02-05T12:42:25.679Z,101606.72
2023-02-05T12:45:04.650Z,101603.28
2023-02-05T12:47:51.794Z,101608.41
2023-02-05T12:50:39.277Z,101604.13
2023-02-05T12:53:21.386Z,101601.56
2023-02-05T12:56:25.284Z,101590.44
2023-02-05T12:58:55.664Z,101603.28
2023-02-05T13:01:36.238Z,101604.16
2023-02-05T13:04:04.504Z,101604.13
2023-02-05T13:06:34.743Z,101603.25
2023-02-05T13:09:06.398Z,101595.59
2023-02-05T13:11:37.910Z,101602.44
2023-02-05T13:14:10.500Z,101600.72
2023-02-05T13:16:42.465Z,101596.44
2023-02-05T13:19:22.208Z,101594.69
2023-02-05T13:22:08.105Z,101585.31
2023-02-05T13:24:57.519Z,101586.16
2023-02-05T13:27:45.435Z,101581.00
2023-02-05T13:30:20.718Z,101587.84
2023-02-05T13:32:51.688Z,101580.13
2023-02-05T13:35:22.227Z,101585.25
2023-02-05T13:38:20.698Z,101590.41
2023-02-05T13:41:43.049Z,101583.59
2023-02-05T13:44:49.424Z,101590.41
2023-02-05T13:47:57.438Z,101565.63
2023-02-05T13:51:04.724Z,101562.19
2023-02-05T13:54:41.933Z,101570.75
2023-02-05T13:57:34.164Z,101569.94
2023-02-05T14:00:02.342Z,101563.91
2023-02-05T14:02:41.981Z,101563.03
2023-02-05T14:05:10.486Z,101560.44
2023-02-05T14:07:45.531Z,101564.69
2023-02-05T14:10:27.104Z,101556.13
2023-02-05T14:13:10.320Z,101554.41
2023-02-05T14:15:40.402Z,101559.56
2023-02-05T14:18:10.531Z,101571.56
2023-02-05T14:20:41.033Z,101572.41
2023-02-05T14:23:15.174Z,101571.59
2023-02-05T14:26:11.421Z,101585.25
2023-02-05T14:28:52.390Z,101580.97
2023-02-05T14:31:49.142Z,101590.38
2023-02-05T14:34:51.345Z,101592.09
2023-02-05T14:37:41.338Z,101594.69
2023-02-05T14:40:26.202Z,101593.84
2023-02-05T14:43:09.514Z,101605.81
2023-02-05T14:45:45.894Z,101604.97
2023-02-05T14:48:25.726Z,101610.13
2023-02-05T14:51:08.616Z,101610.97
2023-02-05T14:53:37.215Z,101601.53
2023-02-05T14:56:05.745Z,101610.94
2023-02-05T14:58:36.041Z,101603.25
2023-02-05T15:01:44.111Z,101615.22
2023-02-05T15:04:26.954Z,101617.78
2023-02-05T15:06:55.192Z,101619.50
2023-02-05T15:09:26.184Z,101625.47
2023-02-05T15:12:04.877Z,101631.47
2023-02-05T15:14:41.977Z,101625.47
2023-02-05T15:17:52.476Z,101634.06
2023-02-05T15:20:32.407Z,101639.16
2023-02-05T15:23:18.309Z,101634.91
2023-02-05T15:25:51.615Z,101644.31
2023-02-05T15:28:25.844Z,101647.72
2023-02-05T15:31:05.495Z,101637.44
2023-02-05T15:33:43.736Z,101650.28
2023-02-05T15:36:22.747Z,101653.72
2023-02-05T15:38:54.307Z,101658.03
2023-02-05T15:41:22.800Z,101653.72
2023-02-05T15:44:02.042Z,101651.16
2023-02-05T15:46:30.696Z,101653.75
2023-02-05T15:49:00.449Z,101655.44
2023-02-05T15:51:33.587Z,101661.44
2023-02-05T15:54:02.746Z,101665.72
2023-02-05T15:56:35.130Z,101669.13
2023-02-05T15:59:06.109Z,101660.59
2023-02-05T16:01:36.280Z,101659.72
2023-02-05T16:04:17.764Z,101663.13
2023-02-05T16:06:46.220Z,101664.84
2023-02-05T16:09:18.776Z,101670.00
2023-02-05T16:11:48.283Z,101671.69
2023-02-05T16:14:18.048Z,101683.69
2023-02-05T16:16:56.292Z,101679.41
2023-02-05T16:19:28.884Z,101676.84
2023-02-05T16:21:59.443Z,101680.25
2023-02-05T16:24:31.091Z,101686.25
2023-02-05T16:27:02.168Z,101696.50
2023-02-05T16:29:46.129Z,101702.50
2023-02-05T16:32:22.337Z,101708.50
2023-02-05T16:34:51.922Z,101705.94
2023-02-05T16:37:20.117Z,101725.59
2023-02-05T16:39:53.324Z,101728.16
2023-02-05T16:42:33.038Z,101734.16
2023-02-05T16:45:22.774Z,101729.88
2023-02-05T16:48:22.550Z,101741.00
2023-02-05T16:50:52.459Z,101739.31
2023-02-05T16:53:26.099Z,101745.28
2023-02-05T16:55:58.340Z,101743.56
2023-02-05T16:58:29.542Z,101747.00
2023-02-05T17:00:59.794Z,101748.72
2023-02-05T17:03:31.518Z,101752.16
2023-02-05T17:06:02.568Z,101758.97
2023-02-05T17:08:32.825Z,101762.41
2023-02-05T17:11:02.995Z,101764.13
2023-02-05T17:13:38.257Z,101764.94
2023-02-05T17:16:26.650Z,101769.25
2023-02-05T17:18:57.185Z,101775.22
2023-02-05T17:21:29.476Z,101772.69
2023-02-05T17:23:59.404Z,101772.66
2023-02-05T17:26:30.741Z,101781.22
2023-02-05T17:29:01.344Z,101778.66
2023-02-05T17:31:29.865Z,101791.47
2023-02-05T17:33:58.963Z,101784.59
2023-02-05T17:36:28.605Z,101797.44
2023-02-05T17:38:57.429Z,101793.16
2023-02-05T17:41:45.224Z,101794.84
2023-02-05T17:44:13.869Z,101797.44
2023-02-05T17:46:42.437Z,101801.72
2023-02-05T17:49:10.762Z,101803.41
2023-02-05T17:51:42.310Z,101799.97
2023-02-05T17:54:14.346Z,101802.53
2023-02-05T17:56:44.364Z,101809.38
2023-02-05T17:59:13.182Z,101805.97
2023-02-05T18:01:41.539Z,101816.22
2023-02-05T18:04:09.823Z,101811.06
2023-02-05T18:06:39.781Z,101806.81
2023-02-05T18:09:08.026Z,101807.69
2023-02-05T18:11:36.559Z,101806.81
2023-02-05T18:14:04.922Z,101814.50
2023-02-05T18:16:33.629Z,101822.19
2023-02-05T18:19:02.235Z,101824.75
2023-02-05T18:21:30.728Z,101823.91
2023-02-05T18:24:00.555Z,101835.03
2023-02-05T18:26:29.009Z,101837.59
2023-02-05T18:28:57.162Z,101858.09
2023-02-05T18:31:25.405Z,101849.53
2023-02-05T18:33:54.099Z,101855.53
2023-02-05T18:36:23.053Z,101862.38
2023-02-05T18:38:51.609Z,101864.94
2023-02-05T18:41:22.476Z,101863.22
2023-02-05T18:43:54.126Z,101855.53
2023-02-05T18:46:24.088Z,101848.69
2023-02-05T18:48:52.518Z,101852.94
2023-02-05T18:51:22.126Z,101864.91
2023-02-05T18:53:50.343Z,101858.09
2023-02-05T18:56:21.023Z,101846.09
2023-02-05T18:58:53.214Z,101869.19
2023-02-05T19:01:21.463Z,101870.03
2023-02-05T19:03:52.672Z,101882.00
2023-02-05T19:06:21.632Z,101873.47
2023-02-05T19:08:49.980Z,101875.13
2023-02-05T19:11:22.544Z,101884.56
2023-02-05T19:13:56.147Z,101879.41
2023-02-05T19:16:24.761Z,101884.53
2023-02-05T19:18:53.060Z,101883.69
2023-02-05T19:21:22.051Z,101872.59
2023-02-05T19:23:52.313Z,101885.41
2023-02-05T19:26:22.924Z,101882.81
2023-02-05T19:28:55.810Z,101885.41
2023-02-05T19:31:24.472Z,101881.97
2023-02-05T19:33:52.708Z,101886.25
2023-02-05T19:36:20.940Z,101902.47
2023-02-05T19:38:49.142Z,101899.88
2023-02-05T19:41:18.517Z,101893.91
2023-02-05T19:43:51.289Z,101910.97
2023-02-05T19:46:20.219Z,101898.13
2023-02-05T19:48:48.514Z,101909.22
2023-02-05T19:51:16.849Z,101904.91
2023-02-05T19:53:45.823Z,101912.56
2023-02-05T19:56:15.364Z,101921.06
2023-02-05T19:58:44.852Z,101921.00
2023-02-05T20:01:15.003Z,101914.13
2023-02-05T20:03:44.721Z,101920.88
2023-02-05T20:06:15.178Z,101932.78
2023-02-05T20:08:43.625Z,101939.59
2023-02-05T20:11:11.975Z,101942.06
2023-02-05T20:13:40.366Z,101930.06
2023-02-05T20:16:10.471Z,101934.31
2023-02-05T20:18:40.403Z,101936.84
2023-02-05T20:21:09.091Z,101937.69
2023-02-05T20:23:37.362Z,101948.75
2023-02-05T20:26:07.389Z,101945.31
2023-02-05T20:28:57.201Z,101958.13
2023-02-05T20:31:34.114Z,101962.38
2023-02-05T20:34:03.985Z,101973.44
2023-02-05T20:36:32.322Z,101971.69
2023-02-05T20:39:01.334Z,101978.53
2023-02-05T20:41:29.739Z,101979.41
2023-02-05T20:43:58.156Z,101989.66
2023-02-05T20:46:26.670Z,101987.97
2023-02-05T20:48:55.029Z,101982.84
2023-02-05T20:51:24.769Z,101976.88
2023-02-05T20:53:53.027Z,101980.28
2023-02-05T20:56:21.373Z,101976.06
2023-02-05T20:58:49.797Z,101982.91
2023-02-05T21:01:19.255Z,101993.13
2023-02-05T21:03:48.881Z,101993.97
2023-02-05T21:06:17.257Z,101997.38
2023-02-05T21:08:47.780Z,102001.66
2023-02-05T21:11:16.511Z,102005.00
2023-02-05T21:13:46.151Z,102010.94
2023-02-05T21:16:14.621Z,102016.09
2023-02-05T21:18:44.714Z,102021.19
2023-02-05T21:21:14.270Z,102021.97
2023-02-05T21:23:43.116Z,102027.13
2023-02-05T21:26:19.920Z,102022.00
2023-02-05T21:28:48.293Z,102026.31
2023-02-05T21:31:16.498Z,102028.88
2023-02-05T21:33:44.672Z,102022.09
2023-02-05T21:36:13.821Z,102027.25
2023-02-05T21:38:43.108Z,102028.09
2023-02-05T21:41:11.773Z,102031.50
2023-02-05T21:43:41.691Z,102031.50
2023-02-05T21:46:11.442Z,102034.84
2023-02-05T21:48:39.756Z,102043.41
2023-02-05T21:51:08.621Z,102049.41
2023-02-05T21:53:36.879Z,102041.69
2023-02-05T21:56:05.787Z,102041.69
2023-02-05T21:58:34.323Z,102039.13
2023-02-05T22:01:15.588Z,102043.41
2023-02-05T22:03:44.799Z,102038.28
2023-02-05T22:06:13.044Z,102042.53
2023-02-05T22:08:41.526Z,102047.66
2023-02-05T22:11:11.086Z,102039.13
2023-02-05T22:13:41.131Z,102035.63
2023-02-05T22:16:10.969Z,102029.50
2023-02-05T22:18:40.432Z,102033.78
2023-02-05T22:21:09.330Z,102035.41
2023-02-05T22:23:37.488Z,102051.56
2023-02-05T22:26:06.463Z,102056.66
2023-02-05T22:28:34.891Z,102072.88
2023-02-05T22:31:03.570Z,102070.31
2023-02-05T22:33:32.433Z,102062.66
2023-02-05T22:36:01.989Z,102074.66
2023-02-05T22:38:31.870Z,102090.03
2023-02-05T22:41:00.234Z,102094.31
2023-02-05T22:43:28.765Z,102097.75
2023-02-05T22:45:57.044Z,102098.59
2023-02-05T22:48:25.224Z,102104.63
2023-02-05T22:50:53.399Z,102102.06
2023-02-05T22:53:23.293Z,102115.69
2023-02-05T22:55:51.566Z,102124.13
2023-02-05T22:58:19.740Z,102124.97
2023-02-05T23:00:47.971Z,102114.69
2023-02-05T23:03:16.263Z,102102.66
2023-02-05T23:05:45.061Z,102101.88
2023-02-05T23:08:13.257Z,102106.13
2023-02-05T23:10:42.772Z,102106.94
2023-02-05T23:13:11.001Z,102106.94
2023-02-05T23:15:39.109Z,102112.03
2023-02-05T23:18:07.244Z,102111.09
2023-02-05T23:20:35.557Z,102117.09
2023-02-05T23:23:03.677Z,102116.16
2023-02-05T23:25:32.015Z,102125.50
2023-02-05T23:28:01.610Z,102124.63
2023-02-05T23:30:29.961Z,102119.50
2023-02-05T23:32:58.276Z,102123.00
2023-02-05T23:35:26.384Z,102129.84
2023-02-05T23:37:54.996Z,102119.56
2023-02-05T23:40:23.232Z,102110.13
2023-02-05T23:42:52.015Z,102122.03
2023-02-05T23:45:21.543Z,102132.25
2023-02-05T23:47:49.697Z,102133.06
2023-02-05T23:50:18.128Z,102127.91
2023-02-05T23:52:46.284Z,102120.19
2023-02-05T23:55:14.671Z,102115.81
2023-02-05T23:57:42.818Z,102127.66
